Time;durP1;ratioP1;P1;durP2;ratioP2;P2;SDS_P1;SDS_P2;PMS_P1;PMS_P2;Temp;Humidity;BMP_temperature;BMP_pressure;BME280_temperature;BME280_humidity;BME280_pressure;Samples;Min_cycle;Max_cycle;Signal;HPM_P1;HPM_P2
2023/01/11 00:00:09;;;;;;;;;;;;;;;9.66;35.37;101236.06;5022092;28;19918;-81
2023/01/11 00:02:56;;;;;;;;;;;;;;;9.33;35.86;101232.53;5026607;28;20400;-81
2023/01/11 00:05:42;;;;;;;;;;;;;;;9.47;35.92;101227.16;5024713;28;19917;-80
2023/01/11 00:08:27;;;;;;;;;;;;;;;9.29;35.01;101235.03;5026982;28;19917;-80
2023/01/11 00:11:13;;;;;;;;;;;;;;;9.42;34.93;101231.56;5019366;28;19913;-80
2023/01/11 00:13:58;;;;;;;;;;;;;;;9.47;36.08;101232.59;5018022;28;19914;-80
2023/01/11 00:16:42;;;;;;;;;;;;;;;9.45;35.98;101227.44;5023810;28;19913;-79
2023/01/11 00:19:27;;;;;;;;;;;;;;;9.34;36.79;101213.25;5010484;28;19921;-79
2023/01/11 00:22:11;;;;;;;;;;;;;;;9.13;38.06;101214.66;5025477;28;19913;-79
2023/01/11 00:24:55;;;;;;;;;;;;;;;9.25;36.85;101215.00;5002755;28;19913;-80
2023/01/11 00:27:40;;;;;;;;;;;;;;;9.55;35.08;101215.66;5015343;28;19913;-80
2023/01/11 00:30:25;;;;;;;;;;;;;;;9.20;35.42;101215.06;5016760;28;19913;-79
2023/01/11 00:33:09;;;;;;;;;;;;;;;9.48;35.78;101217.91;5008694;28;19913;-80
2023/01/11 00:35:54;;;;;;;;;;;;;;;9.16;36.31;101216.75;5022137;28;19913;-80
2023/01/11 00:38:52;;;;;;;;;;;;;;;9.48;36.07;101216.00;5015957;28;20297;-80
2023/01/11 00:47:56;;;;;;;;;;;;;;;9.12;37.59;101204.88;5017618;28;19913;-80
2023/01/11 00:50:40;;;;;;;;;;;;;;;8.91;38.88;101208.97;5024422;28;19913;-79
2023/01/11 00:53:25;;;;;;;;;;;;;;;8.92;36.90;101197.03;5002546;28;19914;-80
2023/01/11 00:56:09;;;;;;;;;;;;;;;9.08;36.55;101198.44;5028348;28;19917;-80
2023/01/11 00:58:53;;;;;;;;;;;;;;;9.14;36.46;101201.88;5020569;28;20376;-79
2023/01/11 01:01:38;;;;;;;;;;;;;;;8.63;38.06;101189.00;5023354;28;19913;-79
2023/01/11 01:04:22;;;;;;;;;;;;;;;8.70;38.58;101194.06;5008042;28;19913;-80
2023/01/11 01:07:07;;;;;;;;;;;;;;;8.87;38.06;101199.81;5009678;28;19920;-79
2023/01/11 01:09:51;;;;;;;;;;;;;;;8.68;38.16;101194.38;5004322;28;19914;-79
2023/01/11 01:15:39;;;;;;;;;;;;;;;8.34;38.60;101212.66;5007670;28;19921;-79
2023/01/11 01:18:24;;;;;;;;;;;;;;;8.78;37.49;101225.97;5012163;28;19917;-79
2023/01/11 01:21:08;;;;;;;;;;;;;;;8.58;37.57;101243.28;5002527;28;19914;-79
2023/01/11 01:23:56;;;;;;;;;;;;;;;8.75;37.96;101237.38;5010485;28;20368;-79
2023/01/11 01:26:40;;;;;;;;;;;;;;;8.64;38.16;101235.88;5023344;28;20396;-79
2023/01/11 01:29:25;;;;;;;;;;;;;;;8.75;37.10;101229.25;5022552;28;19914;-78
2023/01/11 01:32:10;;;;;;;;;;;;;;;8.75;36.09;101231.97;5001196;28;19913;-79
2023/01/11 01:34:54;;;;;;;;;;;;;;;8.87;36.08;101237.78;5004370;28;19913;-79
2023/01/11 01:37:38;;;;;;;;;;;;;;;8.70;36.28;101238.25;5024045;28;19921;-79
2023/01/11 01:40:23;;;;;;;;;;;;;;;8.82;35.75;101240.56;5014470;28;19917;-79
2023/01/11 01:43:11;;;;;;;;;;;;;;;8.95;35.97;101237.13;5013377;28;19917;-79
2023/01/11 01:45:55;;;;;;;;;;;;;;;9.01;34.58;101246.81;5018978;28;20304;-79
2023/01/11 01:48:42;;;;;;;;;;;;;;;9.17;34.07;101250.94;5023087;28;19913;-79
2023/01/11 01:51:33;;;;;;;;;;;;;;;8.85;37.11;101243.47;5023103;28;19914;-79
2023/01/11 01:54:19;;;;;;;;;;;;;;;8.44;37.60;101243.16;5022927;28;19917;-78
2023/01/11 01:57:17;;;;;;;;;;;;;;;8.54;37.45;101234.09;5020259;28;20392;-78
2023/01/11 02:00:04;;;;;;;;;;;;;;;8.94;34.98;101232.78;5002725;28;19917;-79
2023/01/11 02:02:50;;;;;;;;;;;;;;;8.90;34.75;101229.03;5016358;28;19916;-79
2023/01/11 02:05:35;;;;;;;;;;;;;;;8.93;34.53;101239.34;5017344;28;19913;-79
2023/01/11 02:08:31;;;;;;;;;;;;;;;8.91;34.40;101233.38;5030035;28;20449;-79
2023/01/11 02:11:31;;;;;;;;;;;;;;;8.64;36.54;101233.97;5006595;28;20304;-79
2023/01/11 02:14:18;;;;;;;;;;;;;;;8.56;36.04;101216.47;5010002;28;19913;-79
2023/01/11 02:17:02;;;;;;;;;;;;;;;8.47;38.81;101220.91;5018725;28;20377;-79
2023/01/11 02:19:52;;;;;;;;;;;;;;;8.39;37.42;101220.72;5018298;28;19921;-79
2023/01/11 02:22:55;;;;;;;;;;;;;;;8.54;39.80;101220.53;5031287;28;19913;-80
2023/01/11 02:25:52;;;;;;;;;;;;;;;8.79;36.59;101216.72;5020358;28;19913;-79
2023/01/11 02:29:15;;;;;;;;;;;;;;;8.64;36.25;101211.47;5027273;28;19912;-79
2023/01/11 02:32:11;;;;;;;;;;;;;;;8.61;36.41;101220.19;5019951;28;19913;-80
2023/01/11 02:35:03;;;;;;;;;;;;;;;8.54;37.31;101224.06;5017562;28;20629;-79
2023/01/11 02:37:50;;;;;;;;;;;;;;;8.54;38.74;101221.34;5014819;28;20388;-80
2023/01/11 02:40:53;;;;;;;;;;;;;;;8.73;36.84;101215.19;5020376;28;19917;-80
2023/01/11 02:46:57;;;;;;;;;;;;;;;8.12;37.88;101210.44;5004829;28;19913;-79
2023/01/11 02:49:46;;;;;;;;;;;;;;;8.10;38.70;101210.72;5026783;28;19913;-80
2023/01/11 02:52:38;;;;;;;;;;;;;;;8.18;40.12;101222.03;5008170;28;20296;-80
2023/01/11 02:55:25;;;;;;;;;;;;;;;8.19;40.37;101219.00;5011071;28;19913;-80
2023/01/11 02:58:11;;;;;;;;;;;;;;;7.91;39.10;101225.25;5025604;28;20379;-80
2023/01/11 03:00:57;;;;;;;;;;;;;;;7.84;39.27;101228.28;5021717;28;19913;-80
2023/01/11 03:03:42;;;;;;;;;;;;;;;7.85;39.26;101223.69;5028642;28;19913;-80
2023/01/11 03:06:30;;;;;;;;;;;;;;;7.58;40.34;101222.28;5017453;28;19913;-80
2023/01/11 03:09:23;;;;;;;;;;;;;;;7.42;40.22;101226.16;5022752;28;19913;-81
2023/01/11 03:15:32;;;;;;;;;;;;;;;7.35;41.54;101225.69;5021400;28;19921;-80
2023/01/11 03:18:17;;;;;;;;;;;;;;;7.27;41.74;101223.56;5020539;28;20392;-79
2023/01/11 03:21:13;;;;;;;;;;;;;;;7.17;42.09;101221.75;5019279;28;19914;-79
2023/01/11 03:24:07;;;;;;;;;;;;;;;7.42;41.08;101217.25;4999712;28;19913;-79
2023/01/11 03:26:52;;;;;;;;;;;;;;;7.45;44.18;101225.63;5021055;28;19913;-78
2023/01/11 03:29:54;;;;;;;;;;;;;;;7.61;45.33;101224.44;5024009;28;19943;-79
2023/01/11 03:32:47;;;;;;;;;;;;;;;7.40;44.03;101220.25;5024295;28;20384;-79
2023/01/11 03:35:44;;;;;;;;;;;;;;;7.36;44.43;101219.19;5024777;28;19913;-79
2023/01/11 03:38:31;;;;;;;;;;;;;;;7.23;44.84;101212.50;5023788;28;19917;-79
2023/01/11 03:41:20;;;;;;;;;;;;;;;7.17;44.70;101207.41;5025129;28;19913;-79
2023/01/11 03:44:06;;;;;;;;;;;;;;;7.45;41.57;101209.38;5021564;28;19913;-78
2023/01/11 03:46:54;;;;;;;;;;;;;;;7.30;42.96;101212.22;5009938;28;19918;-79
2023/01/11 03:49:44;;;;;;;;;;;;;;;7.33;42.55;101206.22;5017851;28;19921;-79
2023/01/11 03:52:31;;;;;;;;;;;;;;;7.27;42.74;101204.63;5022622;28;19913;-79
2023/01/11 03:55:16;;;;;;;;;;;;;;;7.20;42.27;101198.75;5021002;28;19913;-79
2023/01/11 03:58:01;;;;;;;;;;;;;;;7.10;42.56;101201.53;5013542;28;19932;-79
2023/01/11 04:00:45;;;;;;;;;;;;;;;7.38;41.51;101198.06;5009394;28;19917;-78
2023/01/11 04:03:29;;;;;;;;;;;;;;;7.28;42.05;101206.25;5019421;28;20299;-79
2023/01/11 04:06:14;;;;;;;;;;;;;;;7.15;41.96;101198.78;5015900;28;19913;-78
2023/01/11 04:08:58;;;;;;;;;;;;;;;7.08;42.52;101198.28;5009780;28;19913;-79
2023/01/11 04:11:43;;;;;;;;;;;;;;;7.24;42.67;101202.50;5020741;28;19913;-79
2023/01/11 04:14:27;;;;;;;;;;;;;;;7.08;43.46;101193.69;5023636;28;19913;-78
2023/01/11 04:17:12;;;;;;;;;;;;;;;7.20;44.67;101204.97;5025656;28;19976;-79
2023/01/11 04:19:56;;;;;;;;;;;;;;;7.27;44.90;101212.75;5012411;28;20381;-79
2023/01/11 04:22:41;;;;;;;;;;;;;;;7.30;44.00;101212.22;5023936;28;19921;-79
2023/01/11 04:25:25;;;;;;;;;;;;;;;7.47;41.90;101214.50;5021902;28;19917;-79
2023/01/11 04:28:10;;;;;;;;;;;;;;;7.61;41.27;101229.03;5027499;28;20300;-80
2023/01/11 04:30:54;;;;;;;;;;;;;;;7.12;42.54;101220.97;5017918;28;20304;-80
2023/01/11 04:33:39;;;;;;;;;;;;;;;7.38;42.59;101227.81;5009166;28;20388;-80
2023/01/11 04:36:24;;;;;;;;;;;;;;;7.25;43.20;101231.16;5018412;28;19913;-80
2023/01/11 04:39:09;;;;;;;;;;;;;;;7.32;42.49;101242.47;4995467;28;19921;-80
2023/01/11 04:44:57;;;;;;;;;;;;;;;7.00;43.89;101239.44;5017075;28;20361;-79
2023/01/11 04:47:41;;;;;;;;;;;;;;;7.01;44.08;101232.94;5027544;28;19917;-80
2023/01/11 04:50:26;;;;;;;;;;;;;;;7.00;43.96;101231.31;5016225;28;19913;-80
2023/01/11 04:53:11;;;;;;;;;;;;;;;7.26;43.34;101232.78;5029247;28;19913;-79
2023/01/11 04:55:58;;;;;;;;;;;;;;;6.84;43.99;101234.09;5010568;28;19913;-80
2023/01/11 04:58:43;;;;;;;;;;;;;;;6.85;43.59;101235.72;5008396;28;19925;-79
2023/01/11 05:01:27;;;;;;;;;;;;;;;7.12;42.20;101232.59;5012427;28;19914;-80
2023/01/11 05:04:11;;;;;;;;;;;;;;;7.17;42.13;101237.16;5014532;28;19917;-80
2023/01/11 05:06:56;;;;;;;;;;;;;;;7.41;41.41;101237.28;5007978;28;19913;-79
2023/01/11 05:09:40;;;;;;;;;;;;;;;7.19;42.55;101235.81;5015304;28;19912;-79
2023/01/11 05:12:25;;;;;;;;;;;;;;;6.98;42.90;101241.59;5025956;28;20392;-79
2023/01/11 05:15:09;;;;;;;;;;;;;;;6.58;43.63;101237.97;5006641;28;20392;-79
2023/01/11 05:17:53;;;;;;;;;;;;;;;5.89;45.29;101235.16;5017016;28;19913;-79
2023/01/11 05:20:38;;;;;;;;;;;;;;;6.00;46.21;101232.16;5014580;28;20384;-79
2023/01/11 05:23:23;;;;;;;;;;;;;;;6.36;47.52;101227.50;5010076;28;19913;-79
2023/01/11 05:26:08;;;;;;;;;;;;;;;6.64;48.61;101220.69;5017519;28;19914;-79
2023/01/11 05:28:54;;;;;;;;;;;;;;;6.76;45.28;101229.25;5003369;28;20400;-78
2023/01/11 05:31:39;;;;;;;;;;;;;;;6.95;42.74;101215.94;5008944;28;19921;-79
2023/01/11 05:34:24;;;;;;;;;;;;;;;7.12;42.13;101219.06;5022624;28;19913;-79
2023/01/11 05:37:08;;;;;;;;;;;;;;;7.27;41.64;101229.78;5022828;28;19918;-79
2023/01/11 05:39:53;;;;;;;;;;;;;;;6.77;42.61;101235.47;5010435;28;20300;-79
2023/01/11 05:42:37;;;;;;;;;;;;;;;7.09;42.06;101232.34;5036043;28;19913;-79
2023/01/11 05:45:28;;;;;;;;;;;;;;;6.59;43.26;101226.09;5029987;28;19936;-79
2023/01/11 05:48:12;;;;;;;;;;;;;;;6.79;43.21;101233.31;5022197;28;19914;-79
2023/01/11 05:50:57;;;;;;;;;;;;;;;6.66;44.01;101234.69;5021370;28;19917;-79
2023/01/11 05:53:42;;;;;;;;;;;;;;;6.68;42.60;101229.84;5023718;28;20380;-80
2023/01/11 05:56:26;;;;;;;;;;;;;;;6.99;43.02;101243.22;5015285;28;19913;-79
2023/01/11 05:59:13;;;;;;;;;;;;;;;6.79;43.89;101239.53;5017268;28;19921;-78
2023/01/11 06:01:57;;;;;;;;;;;;;;;7.02;44.70;101231.84;5026388;28;19913;-79
2023/01/11 06:04:42;;;;;;;;;;;;;;;6.93;44.89;101231.63;5028835;28;19925;-79
2023/01/11 06:07:26;;;;;;;;;;;;;;;6.74;43.70;101234.16;5024228;28;19913;-78
2023/01/11 06:10:10;;;;;;;;;;;;;;;6.78;42.96;101226.28;5020613;28;19922;-78
2023/01/11 06:13:25;;;;;;;;;;;;;;;6.72;43.25;101222.78;4998744;28;19913;-78
2023/01/11 06:16:04;;;;;;;;;;;;;;;6.66;42.55;101223.88;5013172;28;19913;-80
2023/01/11 06:18:51;;;;;;;;;;;;;;;6.77;43.04;101225.47;5021899;28;19917;-79
2023/01/11 06:21:35;;;;;;;;;;;;;;;6.91;43.60;101227.59;5031969;28;19913;-79
2023/01/11 06:24:20;;;;;;;;;;;;;;;7.07;43.19;101229.09;5013392;28;19913;-77
2023/01/11 06:27:04;;;;;;;;;;;;;;;6.89;44.74;101238.66;5015886;28;19913;-78
2023/01/11 06:29:49;;;;;;;;;;;;;;;7.00;44.58;101234.84;5003523;28;19917;-78
2023/01/11 06:32:33;;;;;;;;;;;;;;;6.93;43.31;101244.31;5013902;28;20300;-79
2023/01/11 06:35:18;;;;;;;;;;;;;;;6.76;45.89;101237.38;5003534;28;19913;-78
2023/01/11 06:38:02;;;;;;;;;;;;;;;6.64;44.68;101233.38;4996364;28;19913;-80
2023/01/11 06:40:54;;;;;;;;;;;;;;;6.62;44.37;101232.81;5011087;28;19917;-79
2023/01/11 06:43:40;;;;;;;;;;;;;;;6.49;44.34;101238.81;5015674;28;19913;-78
2023/01/11 06:46:25;;;;;;;;;;;;;;;6.41;44.32;101237.50;5012978;28;19913;-78
2023/01/11 06:49:09;;;;;;;;;;;;;;;6.40;44.28;101233.16;5017036;28;20213;-78
2023/01/11 06:51:54;;;;;;;;;;;;;;;6.63;44.38;101234.44;5015848;28;19918;-78
2023/01/11 06:54:39;;;;;;;;;;;;;;;6.26;44.86;101234.81;5011822;28;19922;-78
2023/01/11 06:57:23;;;;;;;;;;;;;;;6.31;45.75;101226.72;5008485;28;19913;-79
2023/01/11 07:00:08;;;;;;;;;;;;;;;6.48;44.31;101224.50;5016738;28;19918;-78
2023/01/11 07:02:52;;;;;;;;;;;;;;;6.41;44.52;101227.50;5015900;28;19914;-78
2023/01/11 07:05:37;;;;;;;;;;;;;;;6.45;44.04;101233.16;5006422;28;20284;-78
2023/01/11 07:08:21;;;;;;;;;;;;;;;6.39;44.17;101235.06;5008916;28;19914;-78
2023/01/11 07:11:07;;;;;;;;;;;;;;;6.45;44.74;101241.25;5017107;28;20325;-78
2023/01/11 07:13:51;;;;;;;;;;;;;;;6.68;44.18;101240.66;5002906;28;19912;-79
2023/01/11 07:16:36;;;;;;;;;;;;;;;6.24;45.14;101237.81;5019696;28;19913;-79
2023/01/11 07:19:20;;;;;;;;;;;;;;;5.86;46.16;101249.16;5008363;28;19918;-78
2023/01/11 07:22:05;;;;;;;;;;;;;;;6.12;45.94;101256.19;5009575;28;19913;-80
2023/01/11 07:24:49;;;;;;;;;;;;;;;6.15;44.55;101260.22;5010409;28;19917;-78
2023/01/11 07:27:34;;;;;;;;;;;;;;;6.34;44.72;101258.59;5023573;28;19913;-79
2023/01/11 07:30:18;;;;;;;;;;;;;;;6.54;45.62;101257.72;5015992;28;20363;-79
2023/01/11 07:33:05;;;;;;;;;;;;;;;6.32;45.95;101256.16;5024568;28;19921;-86
2023/01/11 07:35:49;;;;;;;;;;;;;;;6.02;46.76;101258.91;5010506;28;19921;-86
2023/01/11 07:38:34;;;;;;;;;;;;;;;5.77;46.97;101262.38;5035427;28;19913;-85
2023/01/11 07:44:35;;;;;;;;;;;;;;;5.47;48.35;101260.47;5000786;28;19914;-86
2023/01/11 07:47:21;;;;;;;19.58;5.40;;;;;;;5.74;49.02;101268.31;4962844;28;20466;-86
2023/01/11 07:50:08;;;;;;;16.73;4.82;;;;;;;5.69;49.56;101273.69;4964754;29;20047;-86
2023/01/11 07:52:53;;;;;;;11.30;3.95;;;;;;;5.11;51.28;101278.47;4965520;28;20054;-84
2023/01/11 07:55:39;;;;;;;19.85;5.40;;;;;;;5.04;52.36;101275.19;4954708;28;20402;-83
2023/01/11 07:58:24;;;;;;;16.60;6.10;;;;;;;5.32;51.06;101268.53;4964391;28;20050;-84
2023/01/11 08:01:09;;;;;;;26.00;5.05;;;;;;;5.13;52.64;101270.91;4986165;28;20049;-84
2023/01/11 08:03:55;;;;;;;21.90;5.05;;;;;;;5.78;52.80;101279.38;4968138;28;20054;-82
2023/01/11 08:06:40;;;;;;;10.35;4.18;;;;;;;5.54;50.31;101279.06;4970807;28;20046;-84
2023/01/11 08:09:25;;;;;;;26.48;7.22;;;;;;;5.55;47.98;101280.69;4978566;28;20439;-84
2023/01/11 08:15:13;;;;;;;21.00;6.15;;;;;;;5.38;49.21;101277.47;4978835;28;20074;-82
2023/01/11 08:17:59;;;;;;;21.35;6.35;;;;;;;5.93;49.75;101290.22;4989823;28;20062;-83
2023/01/11 08:20:44;;;;;;;12.77;3.70;;;;;;;6.10;47.59;101290.72;4964719;28;20429;-83
2023/01/11 08:23:30;;;;;;;20.85;4.80;;;;;;;6.46;47.83;101286.09;4979173;28;20054;-81
2023/01/11 08:26:16;;;;;;;18.58;5.07;;;;;;;6.80;48.05;101281.69;4966679;28;20050;-84
2023/01/11 08:29:01;;;;;;;13.13;4.57;;;;;;;6.80;47.89;101283.59;4959904;28;20534;-84
2023/01/11 08:31:47;;;;;;;20.70;9.05;;;;;;;7.22;46.76;101291.22;4968383;28;20062;-85
2023/01/11 08:34:33;;;;;;;49.55;21.60;;;;;;;7.53;46.83;101298.06;4977445;28;20062;-84
2023/01/11 08:37:18;;;;;;;37.97;15.88;;;;;;;7.51;47.94;101294.03;4974944;28;20085;-84
2023/01/11 08:40:04;;;;;;;25.33;11.25;;;;;;;7.78;47.29;101283.56;4972041;28;20120;-84
2023/01/11 08:42:48;;;;;;;31.92;11.43;;;;;;;7.80;45.37;101294.91;4966872;28;20050;-83
2023/01/11 08:45:33;;;;;;;24.23;8.13;;;;;;;6.91;45.96;101300.56;4958296;28;20046;-84
2023/01/11 08:48:18;;;;;;;9.30;3.83;;;;;;;7.24;44.17;101289.06;4979291;28;20061;-84
2023/01/11 08:51:03;;;;;;;12.25;4.57;;;;;;;7.28;43.24;101287.41;4963998;28;20046;-84
2023/01/11 08:53:51;;;;;;;6.60;3.03;;;;;;;7.24;43.65;101295.28;4966964;28;20053;-83
2023/01/11 08:56:35;;;;;;;6.85;3.42;;;;;;;7.01;44.17;101306.72;4963887;28;20046;-83
2023/01/11 08:59:21;;;;;;;9.25;3.80;;;;;;;7.01;46.00;101311.34;4965909;28;20061;-81
2023/01/11 09:02:06;;;;;;;7.38;3.20;;;;;;;7.03;48.50;101311.88;4970928;28;20518;-82
2023/01/11 09:04:51;;;;;;;7.00;3.90;;;;;;;6.98;49.77;101320.00;4985678;28;20058;-82
2023/01/11 09:07:35;;;;;;;7.15;3.17;;;;;;;7.10;49.75;101320.50;4976966;28;20049;-83
2023/01/11 09:10:21;;;;;;;5.75;2.90;;;;;;;7.14;48.44;101316.97;4980271;28;20054;-83
2023/01/11 09:13:06;;;;;;;23.17;4.20;;;;;;;7.28;48.04;101312.56;4972751;28;20111;-82
2023/01/11 09:15:56;;;;;;;9.63;3.03;;;;;;;7.60;45.38;101332.94;4989865;28;20058;-81
2023/01/11 09:18:40;;;;;;;7.57;3.03;;;;;;;7.62;44.48;101322.63;4981758;28;20332;-83
2023/01/11 09:21:26;;;;;;;7.53;2.63;;;;;;;7.43;45.14;101324.38;4971724;29;20053;-83
2023/01/11 09:24:11;;;;;;;7.32;3.10;;;;;;;7.61;45.14;101329.16;4978093;28;20050;-82
2023/01/11 09:26:59;;;;;;;5.32;2.63;;;;;;;7.16;46.15;101330.22;4957082;28;20050;-77
2023/01/11 09:29:44;;;;;;;10.00;3.50;;;;;;;6.90;45.00;101332.22;4970843;28;20038;-79
2023/01/11 09:32:29;;;;;;;9.10;3.33;;;;;;;7.25;44.09;101332.06;4954271;28;20058;-77
2023/01/11 09:35:15;;;;;;;8.97;4.10;;;;;;;7.20;41.77;101325.88;4959355;28;20752;-79
2023/01/11 09:38:01;;;;;;;11.77;3.83;;;;;;;7.77;39.52;101319.88;4968568;28;20290;-78
2023/01/11 09:40:56;;;;;;;4.35;3.17;;;;;;;7.96;39.30;101322.69;4970068;28;20415;-77
2023/01/11 09:43:49;;;;;;;7.50;3.35;;;;;;;8.05;40.03;101329.94;4963572;28;20050;-78
2023/01/11 09:46:38;;;;;;;7.30;3.38;;;;;;;8.13;40.23;101320.38;4957107;28;20043;-79
2023/01/11 09:49:39;;;;;;;9.57;4.22;;;;;;;8.22;40.96;101343.06;4963751;28;20062;-78
2023/01/11 09:52:31;;;;;;;9.23;3.42;;;;;;;8.20;41.01;101334.41;4963001;28;20042;-77
2023/01/11 09:55:21;;;;;;;8.55;4.65;;;;;;;8.24;41.90;101337.34;4964340;28;20434;-78
2023/01/11 09:58:34;;;;;;;8.02;4.05;;;;;;;8.09;42.39;101332.88;4956763;28;20050;-78
2023/01/11 10:01:32;;;;;;;7.35;3.28;;;;;;;8.27;41.65;101332.19;4967120;28;20059;-78
2023/01/11 10:04:48;;;;;;;8.00;4.28;;;;;;;8.31;41.05;101325.13;4957529;28;20054;-78
2023/01/11 10:08:02;;;;;;;6.50;3.78;;;;;;;8.22;41.61;101326.00;4962365;28;20046;-78
2023/01/11 10:11:00;;;;;;;6.50;3.65;;;;;;;8.28;42.80;101322.94;4977867;28;20043;-78
2023/01/11 10:14:22;;;;;;;7.90;3.88;;;;;;;8.41;42.44;101316.91;4961608;28;20046;-78
2023/01/11 10:17:12;;;;;;;6.57;3.50;;;;;;;8.68;42.43;101312.84;4964057;28;20049;-78
2023/01/11 10:20:04;;;;;;;8.18;4.03;;;;;;;8.65;39.60;101295.25;4960122;28;20058;-78
2023/01/11 10:22:50;;;;;;;4.63;2.90;;;;;;;8.66;41.23;101299.56;4952726;28;20047;-78
2023/01/11 10:25:46;;;;;;;9.27;3.45;;;;;;;8.90;39.60;101296.84;4961625;28;20053;-78
2023/01/11 10:28:49;;;;;;;9.77;3.53;;;;;;;8.93;38.66;101294.38;4963350;28;20540;-78
2023/01/11 10:35:09;;;;;;;9.95;4.88;;;;;;;9.48;39.52;101289.31;4958390;28;20054;-79
2023/01/11 10:38:15;;;;;;;10.93;3.58;;;;;;;9.72;38.93;101281.88;4976553;28;20418;-80
2023/01/11 10:41:18;;;;;;;7.60;3.75;;;;;;;10.02;39.76;101280.56;4962877;28;20046;-81
2023/01/11 10:44:22;;;;;;;9.85;4.57;;;;;;;10.25;38.62;101287.84;4972712;28;20046;-81
2023/01/11 10:47:16;;;;;;;9.25;3.25;;;;;;;10.34;37.88;101289.84;4962932;28;20054;-79
2023/01/11 10:50:22;;;;;;;9.30;3.95;;;;;;;10.48;37.25;101277.88;4963754;28;20525;-78
2023/01/11 10:53:22;;;;;;;6.50;3.05;;;;;;;10.60;37.25;101275.50;4980607;28;20058;-79
2023/01/11 10:56:25;;;;;;;4.50;2.42;;;;;;;10.64;37.87;101272.97;4973625;28;20446;-80
2023/01/11 10:59:45;;;;;;;5.75;2.78;;;;;;;10.60;37.96;101275.50;4963348;28;20038;-79
2023/01/11 11:02:39;;;;;;;17.33;5.32;;;;;;;10.66;39.09;101279.72;4968530;28;20062;-79
2023/01/11 11:05:32;;;;;;;11.98;4.63;;;;;;;10.37;38.99;101281.09;4969679;28;20054;-78
2023/01/11 11:08:26;;;;;;;8.90;3.83;;;;;;;10.28;38.12;101281.78;4967731;28;20058;-79
2023/01/11 11:11:25;;;;;;;11.75;3.47;;;;;;;10.22;38.69;101276.72;4957220;28;20046;-79
2023/01/11 11:14:17;;;;;;;8.65;3.85;;;;;;;10.28;39.45;101273.63;4982924;28;20046;-80
2023/01/11 11:17:32;;;;;;;11.43;4.57;;;;;;;10.28;40.09;101268.19;4965520;28;20046;-79
2023/01/11 11:20:24;;;;;;;14.43;5.47;;;;;;;10.34;41.03;101273.53;4955222;28;20054;-78
2023/01/11 11:23:15;;;;;;;9.25;4.60;;;;;;;10.43;40.96;101266.28;4966058;28;20046;-79
2023/01/11 11:26:03;;;;;;;10.93;4.90;;;;;;;10.46;41.86;101261.09;4964786;28;20054;-78
2023/01/11 11:29:03;;;;;;;7.00;4.45;;;;;;;10.56;40.87;101260.06;4984599;28;20054;-79
2023/01/11 11:31:49;;;;;;;8.73;4.35;;;;;;;10.60;41.40;101255.66;4960797;28;20046;-79
2023/01/11 11:34:34;;;;;;;11.70;4.45;;;;;;;10.65;40.83;101250.09;4975593;28;20637;-79
2023/01/11 11:37:24;;;;;;;17.75;5.97;;;;;;;10.66;41.28;101244.38;4966445;28;20054;-78
2023/01/11 11:40:30;;;;;;;8.52;3.97;;;;;;;10.71;40.26;101238.81;4955252;28;20042;-78
2023/01/11 11:43:24;;;;;;;10.77;5.72;;;;;;;10.74;40.18;101231.97;4957200;29;20050;-76
2023/01/11 11:46:18;;;;;;;6.90;3.33;;;;;;;10.82;40.33;101225.78;4945354;28;20057;-77
2023/01/11 11:49:15;;;;;;;14.25;5.60;;;;;;;10.85;40.42;101225.22;4953451;28;20062;-77
2023/01/11 11:52:01;;;;;;;;;;;;;;;10.91;39.39;101212.31;4946900;29;20066;-76
2023/01/11 11:54:51;;;;;;;;;;;;;;;10.97;40.69;101211.88;4952486;28;19915;-76
2023/01/11 11:57:40;;;;;;;;;;;;;;;11.00;40.71;101205.03;4955321;29;19915;-77
2023/01/11 12:00:26;;;;;;;;;;;;;;;11.05;39.90;101211.16;4954304;29;20378;-76
2023/01/11 12:03:14;;;;;;;;;;;;;;;11.09;40.13;101203.19;4937902;29;19914;-77
2023/01/11 12:06:00;;;;;;;;;;;;;;;11.13;40.33;101206.88;4953810;28;19923;-76
2023/01/11 12:08:45;;;;;;;;;;;;;;;11.17;40.02;101205.19;4958703;28;19914;-76
2023/01/11 12:11:35;;;;;;;;;;;;;;;11.21;40.54;101200.75;4951292;29;19915;-76
2023/01/11 12:14:26;;;;;;;;;;;;;;;11.23;39.42;101203.94;4968813;28;19914;-77
2023/01/11 12:17:21;;;;;;;;;;;;;;;11.31;37.86;101197.78;4952424;28;19914;-76
2023/01/11 12:20:29;;;;;;;;;;;;;;;11.31;36.92;101192.34;4953222;28;19915;-76
2023/01/11 12:23:24;;;;;;;;;;;;;;;11.35;37.14;101182.44;4967291;28;19915;-76
2023/01/11 12:26:25;;;;;;;;;;;;;;;11.35;36.06;101181.63;4944602;28;19914;-77
2023/01/11 12:29:16;;;;;;;;;;;;;;;11.46;35.49;101183.00;4950334;29;19914;-76
2023/01/11 12:32:00;;;;;;;;;;;;;;;11.48;35.55;101183.47;4955177;28;19915;-76
2023/01/11 12:34:45;;;;;;;;;;;;;;;11.53;36.15;101192.31;4947002;29;20390;-77
2023/01/11 12:37:48;;;;;;;;;;;;;;;11.54;34.73;101184.97;4947406;29;19914;-77
2023/01/11 12:40:48;;;;;;;;;;;;;;;11.57;35.60;101184.34;4950249;29;20389;-77
2023/01/11 12:43:44;;;;;;;;;;;;;;;11.62;35.21;101172.53;4952053;29;19915;-77
2023/01/11 12:46:31;;;;;;;;;;;;;;;11.63;35.45;101169.47;4962682;28;19914;-77
2023/01/11 12:49:35;;;;;;;;;;;;;;;11.68;35.34;101166.66;4952631;28;20289;-77
2023/01/11 12:52:38;;;;;;;;;;;;;;;11.74;34.53;101153.72;4953250;29;19915;-76
2023/01/11 12:55:35;;;;;;;;;;;;;;;11.78;36.05;101160.97;4948366;28;19914;-77
2023/01/11 12:58:39;;;;;;;;;;;;;;;11.80;36.34;101149.75;4951824;29;19914;-77
2023/01/11 13:01:32;;;;;;;;;;;;;;;11.90;36.32;101152.19;4943424;29;19922;-77
2023/01/11 13:04:24;;;;;;;;;;;;;;;11.90;35.56;101158.44;4949821;29;20310;-77
2023/01/11 13:07:09;;;;;;;;;;;;;;;11.97;36.25;101153.38;4943517;29;20382;-77
2023/01/11 13:10:05;;;;;;;;;;;;;;;11.97;34.81;101147.91;4946146;29;19914;-77
2023/01/11 13:12:59;;;;;;;;;;;;;;;11.96;34.67;101140.84;4936914;29;19922;-77
2023/01/11 13:15:58;;;;;;;;;;;;;;;11.96;34.72;101132.69;4951671;28;20387;-77
2023/01/11 13:18:42;;;;;;;;;;;;;;;12.04;36.52;101133.81;4945689;29;19922;-76
2023/01/11 13:21:32;;;;;;;;;;;;;;;12.09;36.47;101128.22;4945413;29;19923;-77
2023/01/11 13:24:18;;;;;;;;;;;;;;;12.05;36.12;101123.72;4945047;29;19914;-77
2023/01/11 13:27:05;;;;;;;;;;;;;;;12.03;36.57;101113.16;4952362;28;19918;-77
2023/01/11 13:29:52;;;;;;;;;;;;;;;12.01;35.77;101104.47;4946601;29;19914;-77
2023/01/11 13:32:39;;;;;;;;;;;;;;;12.05;36.26;101110.09;4952046;29;19918;-77
2023/01/11 13:35:30;;;;;;;;;;;;;;;12.06;35.88;101107.06;4951863;28;19922;-79
2023/01/11 13:38:28;;;;;;;;;;;;;;;11.96;35.12;101107.34;4953862;29;20545;-81
2023/01/11 13:41:12;;;;;;;;;;;;;;;11.92;34.47;101107.19;4950188;29;19918;-76
2023/01/11 13:44:01;;;;;;;;;;;;;;;11.91;34.33;101107.47;4940737;29;19919;-76
2023/01/11 13:46:51;;;;;;;;;;;;;;;11.92;33.96;101111.81;4953330;28;19915;-76
2023/01/11 13:49:36;;;;;;;;;;;;;;;11.87;34.20;101110.03;4966922;28;20317;-76
2023/01/11 13:52:27;;;;;;;;;;;;;;;11.84;34.87;101099.75;4948876;29;19915;-76
2023/01/11 13:55:21;;;;;;;;;;;;;;;11.78;35.53;101106.47;4952303;28;20310;-76
2023/01/11 13:58:18;;;;;;;;;;;;;;;11.83;35.16;101098.16;4966637;28;19915;-76
2023/01/11 14:01:09;;;;;;;;;;;;;;;11.78;39.15;101101.03;4961227;28;20297;-76
2023/01/11 14:03:58;;;;;;;;;;;;;;;11.76;39.88;101100.53;4956823;29;19914;-77
2023/01/11 14:07:08;;;;;;;;;;;;;;;11.63;39.89;101098.66;4949105;28;19918;-76
2023/01/11 14:10:11;;;;;;;;;;;;;;;11.59;40.65;101089.50;4951686;29;19914;-76
2023/01/11 14:13:01;;;;;;;;;;;;;;;11.58;40.33;101096.88;4950623;29;19918;-76
2023/01/11 14:15:52;;;;;;;;;;;;;;;11.55;39.90;101099.41;4947763;28;20493;-77
2023/01/11 14:18:46;;;;;;;;;;;;;;;11.58;40.04;101106.94;4970911;28;20293;-76
2023/01/11 14:21:43;;;;;;;;;;;;;;;11.61;40.40;101100.09;4972737;28;20382;-76
2023/01/11 14:24:29;;;;;;;;;;;;;;;11.63;40.15;101103.31;4966742;28;19918;-76
2023/01/11 14:27:17;;;;;;;;;;;;;;;11.77;40.20;101104.88;4968011;28;19915;-76
2023/01/11 14:30:20;;;;;;;;;;;;;;;11.81;40.23;101105.84;4972325;28;19914;-76
2023/01/11 14:33:13;;;;;;;;;;;;;;;11.76;40.51;101111.44;4955136;29;19914;-76
2023/01/11 14:36:24;;;;;;;;;;;;;;;11.68;41.02;101112.16;4949090;28;19914;-76
2023/01/11 14:39:14;;;;;;;;;;;;;;;11.72;41.58;101112.34;4966680;28;19914;-76